sensor_id;sensor_type;location;lat;lon;timestamp;temperature;humidity
61672;DHT22;47572;0.00000000;0.00000000;2022-08-11T00:01:59;24.70;60.40
61672;DHT22;47572;0.00000000;0.00000000;2022-08-11T00:04:27;24.70;60.30
61672;DHT22;47572;0.00000000;0.00000000;2022-08-11T00:07:02;24.70;60.40
61672;DHT22;47572;0.00000000;0.00000000;2022-08-11T00:09:36;24.60;60.30
61672;DHT22;47572;0.00000000;0.00000000;2022-08-11T00:12:03;24.60;60.30
61672;DHT22;47572;0.00000000;0.00000000;2022-08-11T00:14:31;24.60;60.30
61672;DHT22;47572;0.00000000;0.00000000;2022-08-11T00:17:01;24.60;60.30
61672;DHT22;47572;0.00000000;0.00000000;2022-08-11T00:19:31;24.60;60.40
61672;DHT22;47572;0.00000000;0.00000000;2022-08-11T00:21:57;24.60;60.40
61672;DHT22;47572;0.00000000;0.00000000;2022-08-11T00:24:24;24.70;60.50
61672;DHT22;47572;0.00000000;0.00000000;2022-08-11T00:26:56;24.60;60.40
61672;DHT22;47572;0.00000000;0.00000000;2022-08-11T00:29:22;24.60;60.40
61672;DHT22;47572;0.00000000;0.00000000;2022-08-11T00:31:53;24.60;60.40
61672;DHT22;47572;0.00000000;0.00000000;2022-08-11T00:34:26;24.60;60.40
61672;DHT22;47572;0.00000000;0.00000000;2022-08-11T00:36:56;24.60;61.30
61672;DHT22;47572;0.00000000;0.00000000;2022-08-11T00:39:25;24.60;60.40
61672;DHT22;47572;0.00000000;0.00000000;2022-08-11T00:42:05;24.60;60.40
61672;DHT22;47572;0.00000000;0.00000000;2022-08-11T01:18:11;24.50;60.20
61672;DHT22;47572;0.00000000;0.00000000;2022-08-11T01:38:20;24.50;60.10
61672;DHT22;47572;0.00000000;0.00000000;2022-08-11T01:44:10;24.50;60.20
61672;DHT22;47572;0.00000000;0.00000000;2022-08-11T01:47:25;24.50;60.20
61672;DHT22;47572;0.00000000;0.00000000;2022-08-11T01:53:03;24.40;60.20
61672;DHT22;47572;0.00000000;0.00000000;2022-08-11T01:56:03;24.50;60.20
61672;DHT22;47572;0.00000000;0.00000000;2022-08-11T01:58:47;24.40;60.10
61672;DHT22;47572;0.00000000;0.00000000;2022-08-11T02:06:44;24.40;60.10
61672;DHT22;47572;0.00000000;0.00000000;2022-08-11T02:11:58;24.40;60.10
61672;DHT22;47572;0.00000000;0.00000000;2022-08-11T02:15:11;24.40;61.00
61672;DHT22;47572;0.00000000;0.00000000;2022-08-11T02:20:20;24.40;60.10
61672;DHT22;47572;0.00000000;0.00000000;2022-08-11T02:23:51;24.40;60.10
61672;DHT22;47572;0.00000000;0.00000000;2022-08-11T02:26:22;24.40;60.00
61672;DHT22;47572;0.00000000;0.00000000;2022-08-11T02:37:20;24.40;60.00
61672;DHT22;47572;0.00000000;0.00000000;2022-08-11T02:40:15;24.40;60.10
61672;DHT22;47572;0.00000000;0.00000000;2022-08-11T02:45:53;24.40;60.00
61672;DHT22;47572;0.00000000;0.00000000;2022-08-11T02:48:30;24.30;60.00
61672;DHT22;47572;0.00000000;0.00000000;2022-08-11T02:54:08;24.30;60.00
61672;DHT22;47572;0.00000000;0.00000000;2022-08-11T02:56:41;24.30;60.00
61672;DHT22;47572;0.00000000;0.00000000;2022-08-11T03:10:17;24.30;60.90
61672;DHT22;47572;0.00000000;0.00000000;2022-08-11T03:16:50;24.30;59.90
61672;DHT22;47572;0.00000000;0.00000000;2022-08-11T03:19:36;24.30;59.90
61672;DHT22;47572;0.00000000;0.00000000;2022-08-11T03:22:29;24.30;60.00
61672;DHT22;47572;0.00000000;0.00000000;2022-08-11T03:25:11;24.30;60.00
61672;DHT22;47572;0.00000000;0.00000000;2022-08-11T03:27:51;24.20;59.90
61672;DHT22;47572;0.00000000;0.00000000;2022-08-11T03:33:32;24.20;59.90
61672;DHT22;47572;0.00000000;0.00000000;2022-08-11T03:39:46;24.20;59.90
61672;DHT22;47572;0.00000000;0.00000000;2022-08-11T03:45:06;24.20;59.90
61672;DHT22;47572;0.00000000;0.00000000;2022-08-11T03:53:22;24.20;59.90
61672;DHT22;47572;0.00000000;0.00000000;2022-08-11T03:58:48;24.20;59.90
61672;DHT22;47572;0.00000000;0.00000000;2022-08-11T04:10:30;24.20;60.00
61672;DHT22;47572;0.00000000;0.00000000;2022-08-11T04:29:55;24.10;59.90
61672;DHT22;47572;0.00000000;0.00000000;2022-08-11T04:52:58;24.10;59.80
61672;DHT22;47572;0.00000000;0.00000000;2022-08-11T04:55:49;24.10;59.80
61672;DHT22;47572;0.00000000;0.00000000;2022-08-11T04:58:51;24.10;60.70
61672;DHT22;47572;0.00000000;0.00000000;2022-08-11T05:16:16;24.10;59.80
61672;DHT22;47572;0.00000000;0.00000000;2022-08-11T05:19:02;24.10;59.80
61672;DHT22;47572;0.00000000;0.00000000;2022-08-11T05:21:53;24.10;59.80
61672;DHT22;47572;0.00000000;0.00000000;2022-08-11T05:24:44;24.10;59.80
61672;DHT22;47572;0.00000000;0.00000000;2022-08-11T05:27:35;24.10;59.90
61672;DHT22;47572;0.00000000;0.00000000;2022-08-11T05:30:28;24.10;59.80
61672;DHT22;47572;0.00000000;0.00000000;2022-08-11T05:33:52;24.10;59.80
61672;DHT22;47572;0.00000000;0.00000000;2022-08-11T05:39:14;24.00;59.80
61672;DHT22;47572;0.00000000;0.00000000;2022-08-11T05:41:59;24.10;59.90
61672;DHT22;47572;0.00000000;0.00000000;2022-08-11T05:44:45;24.10;59.80
61672;DHT22;47572;0.00000000;0.00000000;2022-08-11T05:47:33;24.00;59.80
61672;DHT22;47572;0.00000000;0.00000000;2022-08-11T05:50:21;24.10;59.90
61672;DHT22;47572;0.00000000;0.00000000;2022-08-11T05:53:09;24.10;59.90
61672;DHT22;47572;0.00000000;0.00000000;2022-08-11T05:55:55;24.10;59.80
61672;DHT22;47572;0.00000000;0.00000000;2022-08-11T05:58:43;24.10;59.80
61672;DHT22;47572;0.00000000;0.00000000;2022-08-11T06:01:12;24.10;59.80
61672;DHT22;47572;0.00000000;0.00000000;2022-08-11T06:03:38;24.10;59.80
61672;DHT22;47572;0.00000000;0.00000000;2022-08-11T06:06:26;24.10;59.80
61672;DHT22;47572;0.00000000;0.00000000;2022-08-11T06:08:57;24.10;60.00
61672;DHT22;47572;0.00000000;0.00000000;2022-08-11T06:11:23;24.20;60.10
61672;DHT22;47572;0.00000000;0.00000000;2022-08-11T06:13:50;24.20;60.10
61672;DHT22;47572;0.00000000;0.00000000;2022-08-11T06:16:25;24.20;60.20
61672;DHT22;47572;0.00000000;0.00000000;2022-08-11T06:18:53;24.20;60.20
61672;DHT22;47572;0.00000000;0.00000000;2022-08-11T06:21:20;24.20;60.40
61672;DHT22;47572;0.00000000;0.00000000;2022-08-11T06:23:47;24.20;60.50
61672;DHT22;47572;0.00000000;0.00000000;2022-08-11T06:26:14;24.20;60.60
61672;DHT22;47572;0.00000000;0.00000000;2022-08-11T06:28:42;24.30;60.70
61672;DHT22;47572;0.00000000;0.00000000;2022-08-11T06:31:13;24.30;60.80
61672;DHT22;47572;0.00000000;0.00000000;2022-08-11T06:39:26;24.30;61.30
61672;DHT22;47572;0.00000000;0.00000000;2022-08-11T06:42:04;24.40;61.40
61672;DHT22;47572;0.00000000;0.00000000;2022-08-11T06:44:39;24.40;61.30
61672;DHT22;47572;0.00000000;0.00000000;2022-08-11T06:47:11;24.40;61.30
61672;DHT22;47572;0.00000000;0.00000000;2022-08-11T06:49:45;24.40;61.30
61672;DHT22;47572;0.00000000;0.00000000;2022-08-11T06:52:32;24.50;61.20
61672;DHT22;47572;0.00000000;0.00000000;2022-08-11T06:55:14;24.50;61.10
61672;DHT22;47572;0.00000000;0.00000000;2022-08-11T06:58:17;24.50;61.20
61672;DHT22;47572;0.00000000;0.00000000;2022-08-11T07:01:08;24.50;61.10
61672;DHT22;47572;0.00000000;0.00000000;2022-08-11T07:03:55;24.60;61.30
61672;DHT22;47572;0.00000000;0.00000000;2022-08-11T07:06:49;24.60;61.30
61672;DHT22;47572;0.00000000;0.00000000;2022-08-11T07:09:51;24.60;61.30
61672;DHT22;47572;0.00000000;0.00000000;2022-08-11T07:12:44;24.60;61.20
61672;DHT22;47572;0.00000000;0.00000000;2022-08-11T07:15:32;24.60;61.30
61672;DHT22;47572;0.00000000;0.00000000;2022-08-11T07:18:20;24.70;61.50
61672;DHT22;47572;0.00000000;0.00000000;2022-08-11T07:21:15;24.70;61.60
61672;DHT22;47572;0.00000000;0.00000000;2022-08-11T07:24:29;24.70;61.40
61672;DHT22;47572;0.00000000;0.00000000;2022-08-11T07:27:14;24.70;61.50
61672;DHT22;47572;0.00000000;0.00000000;2022-08-11T07:30:04;24.70;61.50
61672;DHT22;47572;0.00000000;0.00000000;2022-08-11T07:32:32;24.70;61.40
61672;DHT22;47572;0.00000000;0.00000000;2022-08-11T07:35:12;24.80;61.40
61672;DHT22;47572;0.00000000;0.00000000;2022-08-11T07:37:42;24.70;61.40
61672;DHT22;47572;0.00000000;0.00000000;2022-08-11T07:40:10;24.80;61.50
61672;DHT22;47572;0.00000000;0.00000000;2022-08-11T07:42:36;24.80;61.50
61672;DHT22;47572;0.00000000;0.00000000;2022-08-11T07:45:07;24.80;61.50
61672;DHT22;47572;0.00000000;0.00000000;2022-08-11T07:47:54;24.80;61.40
61672;DHT22;47572;0.00000000;0.00000000;2022-08-11T07:50:41;24.80;61.40
61672;DHT22;47572;0.00000000;0.00000000;2022-08-11T07:53:26;24.80;61.30
61672;DHT22;47572;0.00000000;0.00000000;2022-08-11T07:55:55;24.90;61.20
61672;DHT22;47572;0.00000000;0.00000000;2022-08-11T07:58:22;24.90;61.20
61672;DHT22;47572;0.00000000;0.00000000;2022-08-11T08:01:07;24.90;61.20
61672;DHT22;47572;0.00000000;0.00000000;2022-08-11T08:03:52;24.90;61.30
61672;DHT22;47572;0.00000000;0.00000000;2022-08-11T08:06:38;24.90;61.30
61672;DHT22;47572;0.00000000;0.00000000;2022-08-11T08:09:24;25.00;61.20
61672;DHT22;47572;0.00000000;0.00000000;2022-08-11T08:12:09;25.00;61.10
61672;DHT22;47572;0.00000000;0.00000000;2022-08-11T08:14:56;25.00;61.00
61672;DHT22;47572;0.00000000;0.00000000;2022-08-11T08:17:43;25.00;60.80
61672;DHT22;47572;0.00000000;0.00000000;2022-08-11T08:20:29;25.00;60.70
61672;DHT22;47572;0.00000000;0.00000000;2022-08-11T08:22:57;25.00;60.70
61672;DHT22;47572;0.00000000;0.00000000;2022-08-11T08:25:29;25.00;60.60
61672;DHT22;47572;0.00000000;0.00000000;2022-08-11T08:27:57;25.00;60.70
61672;DHT22;47572;0.00000000;0.00000000;2022-08-11T08:30:25;25.00;60.70
61672;DHT22;47572;0.00000000;0.00000000;2022-08-11T08:33:15;25.00;60.70
61672;DHT22;47572;0.00000000;0.00000000;2022-08-11T08:35:42;25.00;60.60
61672;DHT22;47572;0.00000000;0.00000000;2022-08-11T08:38:10;25.00;60.50
61672;DHT22;47572;0.00000000;0.00000000;2022-08-11T08:40:38;25.10;60.50
61672;DHT22;47572;0.00000000;0.00000000;2022-08-11T08:43:08;25.10;60.40
61672;DHT22;47572;0.00000000;0.00000000;2022-08-11T08:45:36;25.10;60.30
61672;DHT22;47572;0.00000000;0.00000000;2022-08-11T08:48:07;25.10;60.00
61672;DHT22;47572;0.00000000;0.00000000;2022-08-11T08:50:36;25.10;59.80
61672;DHT22;47572;0.00000000;0.00000000;2022-08-11T08:53:24;25.10;59.70
61672;DHT22;47572;0.00000000;0.00000000;2022-08-11T08:55:55;25.20;59.50
61672;DHT22;47572;0.00000000;0.00000000;2022-08-11T08:58:23;25.10;59.40
61672;DHT22;47572;0.00000000;0.00000000;2022-08-11T09:00:53;25.20;59.30
61672;DHT22;47572;0.00000000;0.00000000;2022-08-11T09:03:22;25.20;59.20
61672;DHT22;47572;0.00000000;0.00000000;2022-08-11T09:05:53;25.20;59.20
61672;DHT22;47572;0.00000000;0.00000000;2022-08-11T09:08:21;25.20;59.00
61672;DHT22;47572;0.00000000;0.00000000;2022-08-11T09:10:48;25.20;58.90
61672;DHT22;47572;0.00000000;0.00000000;2022-08-11T09:13:35;25.20;58.80
61672;DHT22;47572;0.00000000;0.00000000;2022-08-11T09:16:04;25.20;58.80
61672;DHT22;47572;0.00000000;0.00000000;2022-08-11T09:18:32;25.20;58.30
61672;DHT22;47572;0.00000000;0.00000000;2022-08-11T09:20:58;25.30;58.30
61672;DHT22;47572;0.00000000;0.00000000;2022-08-11T09:23:27;25.20;58.20
61672;DHT22;47572;0.00000000;0.00000000;2022-08-11T09:26:12;25.20;58.30
61672;DHT22;47572;0.00000000;0.00000000;2022-08-11T09:28:58;25.20;58.00
61672;DHT22;47572;0.00000000;0.00000000;2022-08-11T09:31:25;25.20;57.40
61672;DHT22;47572;0.00000000;0.00000000;2022-08-11T09:33:53;25.20;57.20
61672;DHT22;47572;0.00000000;0.00000000;2022-08-11T09:36:19;25.20;57.40
61672;DHT22;47572;0.00000000;0.00000000;2022-08-11T09:39:05;25.30;57.30
61672;DHT22;47572;0.00000000;0.00000000;2022-08-11T09:41:50;25.30;57.20
61672;DHT22;47572;0.00000000;0.00000000;2022-08-11T09:44:17;25.30;57.00
61672;DHT22;47572;0.00000000;0.00000000;2022-08-11T09:47:02;25.30;56.90
61672;DHT22;47572;0.00000000;0.00000000;2022-08-11T09:49:31;25.30;56.30
61672;DHT22;47572;0.00000000;0.00000000;2022-08-11T09:51:57;25.30;55.60
61672;DHT22;47572;0.00000000;0.00000000;2022-08-11T09:54:26;25.30;55.10
61672;DHT22;47572;0.00000000;0.00000000;2022-08-11T09:56:52;25.30;54.80
61672;DHT22;47572;0.00000000;0.00000000;2022-08-11T09:59:37;25.30;54.80
61672;DHT22;47572;0.00000000;0.00000000;2022-08-11T10:02:05;25.30;54.10
61672;DHT22;47572;0.00000000;0.00000000;2022-08-11T10:04:42;25.30;53.60
61672;DHT22;47572;0.00000000;0.00000000;2022-08-11T10:07:14;25.30;53.90
61672;DHT22;47572;0.00000000;0.00000000;2022-08-11T10:09:51;25.40;54.30
61672;DHT22;47572;0.00000000;0.00000000;2022-08-11T10:12:26;25.30;54.40
61672;DHT22;47572;0.00000000;0.00000000;2022-08-11T10:15:03;25.30;54.70
61672;DHT22;47572;0.00000000;0.00000000;2022-08-11T10:17:53;25.30;54.90
61672;DHT22;47572;0.00000000;0.00000000;2022-08-11T10:20:41;25.30;55.10
61672;DHT22;47572;0.00000000;0.00000000;2022-08-11T10:23:11;25.30;56.20
61672;DHT22;47572;0.00000000;0.00000000;2022-08-11T10:25:57;25.30;55.30
61672;DHT22;47572;0.00000000;0.00000000;2022-08-11T10:28:41;25.30;55.40
61672;DHT22;47572;0.00000000;0.00000000;2022-08-11T10:31:08;25.30;55.40
61672;DHT22;47572;0.00000000;0.00000000;2022-08-11T10:33:53;25.30;55.40
61672;DHT22;47572;0.00000000;0.00000000;2022-08-11T10:36:31;25.30;55.50
61672;DHT22;47572;0.00000000;0.00000000;2022-08-11T10:39:00;25.30;55.50
61672;DHT22;47572;0.00000000;0.00000000;2022-08-11T10:41:28;25.30;55.60
61672;DHT22;47572;0.00000000;0.00000000;2022-08-11T10:44:13;25.30;55.60
61672;DHT22;47572;0.00000000;0.00000000;2022-08-11T10:46:40;25.30;55.60
61672;DHT22;47572;0.00000000;0.00000000;2022-08-11T10:49:25;25.30;55.60
61672;DHT22;47572;0.00000000;0.00000000;2022-08-11T10:51:54;25.30;55.60
61672;DHT22;47572;0.00000000;0.00000000;2022-08-11T10:54:41;25.30;55.50
61672;DHT22;47572;0.00000000;0.00000000;2022-08-11T10:57:27;25.30;55.50
61672;DHT22;47572;0.00000000;0.00000000;2022-08-11T11:00:12;25.30;55.40
61672;DHT22;47572;0.00000000;0.00000000;2022-08-11T11:02:42;25.30;55.40
61672;DHT22;47572;0.00000000;0.00000000;2022-08-11T11:05:23;25.30;55.40
61672;DHT22;47572;0.00000000;0.00000000;2022-08-11T11:07:59;25.30;55.30
61672;DHT22;47572;0.00000000;0.00000000;2022-08-11T11:10:47;25.30;55.30
61672;DHT22;47572;0.00000000;0.00000000;2022-08-11T11:13:13;25.30;55.30
61672;DHT22;47572;0.00000000;0.00000000;2022-08-11T11:15:58;25.30;55.30
61672;DHT22;47572;0.00000000;0.00000000;2022-08-11T11:18:44;25.30;55.20
61672;DHT22;47572;0.00000000;0.00000000;2022-08-11T11:21:17;25.30;55.10
61672;DHT22;47572;0.00000000;0.00000000;2022-08-11T11:23:55;25.30;55.00
61672;DHT22;47572;0.00000000;0.00000000;2022-08-11T11:26:42;25.30;55.00
61672;DHT22;47572;0.00000000;0.00000000;2022-08-11T11:37:34;25.30;54.70
61672;DHT22;47572;0.00000000;0.00000000;2022-08-11T11:40:07;25.30;54.70
61672;DHT22;47572;0.00000000;0.00000000;2022-08-11T11:42:36;25.30;54.70
61672;DHT22;47572;0.00000000;0.00000000;2022-08-11T11:45:03;25.30;54.60
61672;DHT22;47572;0.00000000;0.00000000;2022-08-11T11:47:31;25.30;54.50
61672;DHT22;47572;0.00000000;0.00000000;2022-08-11T11:49:57;25.20;54.30
61672;DHT22;47572;0.00000000;0.00000000;2022-08-11T11:52:24;25.30;54.30
61672;DHT22;47572;0.00000000;0.00000000;2022-08-11T11:54:55;25.30;54.20
61672;DHT22;47572;0.00000000;0.00000000;2022-08-11T11:57:22;25.30;53.70
61672;DHT22;47572;0.00000000;0.00000000;2022-08-11T12:00:09;25.30;53.80
61672;DHT22;47572;0.00000000;0.00000000;2022-08-11T12:02:56;25.30;53.80
61672;DHT22;47572;0.00000000;0.00000000;2022-08-11T12:05:23;25.30;53.70
61672;DHT22;47572;0.00000000;0.00000000;2022-08-11T12:07:50;25.30;53.70
61672;DHT22;47572;0.00000000;0.00000000;2022-08-11T12:13:09;25.30;53.50
61672;DHT22;47572;0.00000000;0.00000000;2022-08-11T12:15:54;25.30;53.50
61672;DHT22;47572;0.00000000;0.00000000;2022-08-11T12:18:20;25.30;53.40
61672;DHT22;47572;0.00000000;0.00000000;2022-08-11T12:20:46;25.30;53.30
61672;DHT22;47572;0.00000000;0.00000000;2022-08-11T12:23:13;25.30;53.30
61672;DHT22;47572;0.00000000;0.00000000;2022-08-11T12:25:58;25.30;53.40
61672;DHT22;47572;0.00000000;0.00000000;2022-08-11T12:28:44;25.30;53.40
61672;DHT22;47572;0.00000000;0.00000000;2022-08-11T12:31:11;25.30;53.40
61672;DHT22;47572;0.00000000;0.00000000;2022-08-11T12:33:37;25.30;53.40
61672;DHT22;47572;0.00000000;0.00000000;2022-08-11T12:36:07;25.30;53.40
61672;DHT22;47572;0.00000000;0.00000000;2022-08-11T12:38:34;25.30;53.50
61672;DHT22;47572;0.00000000;0.00000000;2022-08-11T12:41:01;25.30;53.60
61672;DHT22;47572;0.00000000;0.00000000;2022-08-11T12:43:46;25.30;53.70
61672;DHT22;47572;0.00000000;0.00000000;2022-08-11T12:46:33;25.40;53.80
61672;DHT22;47572;0.00000000;0.00000000;2022-08-11T12:49:12;25.40;53.80
61672;DHT22;47572;0.00000000;0.00000000;2022-08-11T12:52:02;25.40;53.90
61672;DHT22;47572;0.00000000;0.00000000;2022-08-11T12:54:44;25.40;54.00
61672;DHT22;47572;0.00000000;0.00000000;2022-08-11T12:57:35;25.40;54.00
61672;DHT22;47572;0.00000000;0.00000000;2022-08-11T13:00:18;25.40;54.10
61672;DHT22;47572;0.00000000;0.00000000;2022-08-11T13:03:06;25.40;54.10
61672;DHT22;47572;0.00000000;0.00000000;2022-08-11T13:05:53;25.40;54.20
61672;DHT22;47572;0.00000000;0.00000000;2022-08-11T13:08:22;25.40;54.20
61672;DHT22;47572;0.00000000;0.00000000;2022-08-11T13:10:50;25.50;54.30
61672;DHT22;47572;0.00000000;0.00000000;2022-08-11T13:13:36;25.50;54.30
61672;DHT22;47572;0.00000000;0.00000000;2022-08-11T13:16:03;25.40;54.30
61672;DHT22;47572;0.00000000;0.00000000;2022-08-11T13:18:29;25.50;54.40
61672;DHT22;47572;0.00000000;0.00000000;2022-08-11T13:20:56;25.50;54.40
61672;DHT22;47572;0.00000000;0.00000000;2022-08-11T13:23:23;25.50;54.40
61672;DHT22;47572;0.00000000;0.00000000;2022-08-11T13:25:52;25.50;54.40
61672;DHT22;47572;0.00000000;0.00000000;2022-08-11T13:28:20;25.60;54.50
61672;DHT22;47572;0.00000000;0.00000000;2022-08-11T13:30:48;25.50;54.40
61672;DHT22;47572;0.00000000;0.00000000;2022-08-11T13:33:41;25.60;54.60
61672;DHT22;47572;0.00000000;0.00000000;2022-08-11T13:36:08;25.60;54.60
61672;DHT22;47572;0.00000000;0.00000000;2022-08-11T13:38:35;25.60;54.60
61672;DHT22;47572;0.00000000;0.00000000;2022-08-11T13:41:02;25.70;54.70
61672;DHT22;47572;0.00000000;0.00000000;2022-08-11T13:43:49;25.70;54.70
61672;DHT22;47572;0.00000000;0.00000000;2022-08-11T13:46:17;25.70;54.70
61672;DHT22;47572;0.00000000;0.00000000;2022-08-11T13:48:46;25.70;54.70
61672;DHT22;47572;0.00000000;0.00000000;2022-08-11T13:51:12;25.80;54.70
61672;DHT22;47572;0.00000000;0.00000000;2022-08-11T13:54:07;25.80;54.70
61672;DHT22;47572;0.00000000;0.00000000;2022-08-11T13:56:38;25.80;54.70
61672;DHT22;47572;0.00000000;0.00000000;2022-08-11T13:59:08;25.80;54.60
61672;DHT22;47572;0.00000000;0.00000000;2022-08-11T14:01:40;25.90;54.70
61672;DHT22;47572;0.00000000;0.00000000;2022-08-11T14:04:12;25.90;54.70
61672;DHT22;47572;0.00000000;0.00000000;2022-08-11T14:06:47;25.90;54.60
61672;DHT22;47572;0.00000000;0.00000000;2022-08-11T14:09:19;25.90;54.60
61672;DHT22;47572;0.00000000;0.00000000;2022-08-11T14:11:47;25.90;54.60
61672;DHT22;47572;0.00000000;0.00000000;2022-08-11T14:14:33;25.90;54.60
61672;DHT22;47572;0.00000000;0.00000000;2022-08-11T14:17:05;25.90;54.50
61672;DHT22;47572;0.00000000;0.00000000;2022-08-11T14:19:40;26.00;54.70
61672;DHT22;47572;0.00000000;0.00000000;2022-08-11T14:22:07;26.00;54.60
61672;DHT22;47572;0.00000000;0.00000000;2022-08-11T14:24:38;26.00;54.00
61672;DHT22;47572;0.00000000;0.00000000;2022-08-11T14:27:07;26.00;53.30
61672;DHT22;47572;0.00000000;0.00000000;2022-08-11T14:29:34;26.10;53.00
61672;DHT22;47572;0.00000000;0.00000000;2022-08-11T14:32:14;26.10;52.70
61672;DHT22;47572;0.00000000;0.00000000;2022-08-11T14:34:42;26.20;52.70
61672;DHT22;47572;0.00000000;0.00000000;2022-08-11T14:37:13;26.20;52.20
61672;DHT22;47572;0.00000000;0.00000000;2022-08-11T14:39:51;26.20;51.90
61672;DHT22;47572;0.00000000;0.00000000;2022-08-11T14:42:20;26.20;51.30
61672;DHT22;47572;0.00000000;0.00000000;2022-08-11T14:45:06;26.20;51.10
61672;DHT22;47572;0.00000000;0.00000000;2022-08-11T14:47:53;26.20;50.70
61672;DHT22;47572;0.00000000;0.00000000;2022-08-11T14:50:24;26.30;50.30
61672;DHT22;47572;0.00000000;0.00000000;2022-08-11T14:52:59;26.30;50.00
61672;DHT22;47572;0.00000000;0.00000000;2022-08-11T14:55:27;26.40;49.90
61672;DHT22;47572;0.00000000;0.00000000;2022-08-11T14:58:16;26.40;49.80
61672;DHT22;47572;0.00000000;0.00000000;2022-08-11T15:00:43;26.40;49.60
61672;DHT22;47572;0.00000000;0.00000000;2022-08-11T15:03:12;26.40;49.50
61672;DHT22;47572;0.00000000;0.00000000;2022-08-11T15:05:49;26.40;49.50
61672;DHT22;47572;0.00000000;0.00000000;2022-08-11T15:08:16;26.40;49.50
61672;DHT22;47572;0.00000000;0.00000000;2022-08-11T15:10:43;26.50;49.60
61672;DHT22;47572;0.00000000;0.00000000;2022-08-11T15:13:10;26.50;49.50
61672;DHT22;47572;0.00000000;0.00000000;2022-08-11T15:15:38;26.50;49.50
61672;DHT22;47572;0.00000000;0.00000000;2022-08-11T15:18:24;26.50;49.50
61672;DHT22;47572;0.00000000;0.00000000;2022-08-11T15:20:51;26.50;49.30
61672;DHT22;47572;0.00000000;0.00000000;2022-08-11T15:23:38;26.50;48.80
61672;DHT22;47572;0.00000000;0.00000000;2022-08-11T15:26:32;26.50;48.70
61672;DHT22;47572;0.00000000;0.00000000;2022-08-11T15:29:21;26.50;48.70
61672;DHT22;47572;0.00000000;0.00000000;2022-08-11T15:32:08;26.50;48.70
61672;DHT22;47572;0.00000000;0.00000000;2022-08-11T15:34:53;26.50;48.70
61672;DHT22;47572;0.00000000;0.00000000;2022-08-11T15:37:42;26.50;48.70
61672;DHT22;47572;0.00000000;0.00000000;2022-08-11T15:40:15;26.50;48.70
61672;DHT22;47572;0.00000000;0.00000000;2022-08-11T15:43:09;26.50;48.80
61672;DHT22;47572;0.00000000;0.00000000;2022-08-11T15:45:56;26.50;48.90
61672;DHT22;47572;0.00000000;0.00000000;2022-08-11T15:51:10;26.60;49.10
61672;DHT22;47572;0.00000000;0.00000000;2022-08-11T15:53:42;26.50;49.10
61672;DHT22;47572;0.00000000;0.00000000;2022-08-11T15:56:11;26.60;49.20
61672;DHT22;47572;0.00000000;0.00000000;2022-08-11T15:58:45;26.50;49.00
61672;DHT22;47572;0.00000000;0.00000000;2022-08-11T16:01:32;26.50;48.80
61672;DHT22;47572;0.00000000;0.00000000;2022-08-11T16:04:22;26.50;48.80
61672;DHT22;47572;0.00000000;0.00000000;2022-08-11T16:07:00;26.50;48.60
61672;DHT22;47572;0.00000000;0.00000000;2022-08-11T16:09:32;26.50;48.30
61672;DHT22;47572;0.00000000;0.00000000;2022-08-11T16:12:03;26.50;48.40
61672;DHT22;47572;0.00000000;0.00000000;2022-08-11T16:14:33;26.50;48.40
61672;DHT22;47572;0.00000000;0.00000000;2022-08-11T16:17:20;26.40;48.50
61672;DHT22;47572;0.00000000;0.00000000;2022-08-11T16:19:51;26.40;48.50
61672;DHT22;47572;0.00000000;0.00000000;2022-08-11T16:22:22;26.40;48.60
61672;DHT22;47572;0.00000000;0.00000000;2022-08-11T16:25:10;26.40;48.60
61672;DHT22;47572;0.00000000;0.00000000;2022-08-11T16:27:42;26.40;48.70
61672;DHT22;47572;0.00000000;0.00000000;2022-08-11T16:30:10;26.40;48.80
61672;DHT22;47572;0.00000000;0.00000000;2022-08-11T16:32:39;26.30;48.80
61672;DHT22;47572;0.00000000;0.00000000;2022-08-11T16:35:10;26.30;48.70
61672;DHT22;47572;0.00000000;0.00000000;2022-08-11T16:37:56;26.30;48.70
61672;DHT22;47572;0.00000000;0.00000000;2022-08-11T16:40:42;26.30;48.90
61672;DHT22;47572;0.00000000;0.00000000;2022-08-11T16:43:14;26.20;49.00
61672;DHT22;47572;0.00000000;0.00000000;2022-08-11T16:46:00;26.20;49.20
61672;DHT22;47572;0.00000000;0.00000000;2022-08-11T16:48:47;26.20;49.40
61672;DHT22;47572;0.00000000;0.00000000;2022-08-11T16:51:14;26.20;49.50
61672;DHT22;47572;0.00000000;0.00000000;2022-08-11T16:53:42;26.20;49.60
61672;DHT22;47572;0.00000000;0.00000000;2022-08-11T16:56:11;26.20;49.70
61672;DHT22;47572;0.00000000;0.00000000;2022-08-11T16:58:42;26.20;49.80
61672;DHT22;47572;0.00000000;0.00000000;2022-08-11T17:01:27;26.20;49.90
61672;DHT22;47572;0.00000000;0.00000000;2022-08-11T17:04:01;26.20;50.10
61672;DHT22;47572;0.00000000;0.00000000;2022-08-11T17:06:51;26.20;50.10
61672;DHT22;47572;0.00000000;0.00000000;2022-08-11T17:09:37;26.20;50.20
61672;DHT22;47572;0.00000000;0.00000000;2022-08-11T17:12:25;26.20;50.40
61672;DHT22;47572;0.00000000;0.00000000;2022-08-11T17:15:16;26.20;50.50
61672;DHT22;47572;0.00000000;0.00000000;2022-08-11T17:18:03;26.20;50.70
61672;DHT22;47572;0.00000000;0.00000000;2022-08-11T17:20:31;26.20;50.80
61672;DHT22;47572;0.00000000;0.00000000;2022-08-11T17:22:59;26.20;50.90
61672;DHT22;47572;0.00000000;0.00000000;2022-08-11T17:25:46;26.20;51.00
61672;DHT22;47572;0.00000000;0.00000000;2022-08-11T17:28:17;26.20;51.10
61672;DHT22;47572;0.00000000;0.00000000;2022-08-11T17:30:45;26.20;51.10
61672;DHT22;47572;0.00000000;0.00000000;2022-08-11T17:33:32;26.10;51.10
61672;DHT22;47572;0.00000000;0.00000000;2022-08-11T17:36:18;26.10;51.30
61672;DHT22;47572;0.00000000;0.00000000;2022-08-11T17:38:46;26.10;51.30
61672;DHT22;47572;0.00000000;0.00000000;2022-08-11T17:41:14;26.10;51.30
61672;DHT22;47572;0.00000000;0.00000000;2022-08-11T17:44:00;26.10;51.40
61672;DHT22;47572;0.00000000;0.00000000;2022-08-11T17:46:45;26.10;51.50
61672;DHT22;47572;0.00000000;0.00000000;2022-08-11T17:49:32;26.10;51.60